This is the latest recevied weather packets stored in our database for station/object IW1RID-3. If no packets are shown the sender has not sent any weather packets the latest 10 day(s).
| Time | Temp. | Humidity | Pressure | Rain* | Wind** | Luminosity | Snow |
|---|---|---|---|---|---|---|---|
| 1788245906 | 22.22° C | 75% | 1074.9 hPa | - | - | - | - |
| 1788244701 | 21.67° C | 76% | 1074.9 hPa | - | - | - | - |
| 1788243496 | 21.67° C | 77% | 1074.8 hPa | - | - | - | - |
| 1788242292 | 21.11° C | 82% | 1074.6 hPa | - | - | - | - |
| 1788241087 | 19.44° C | 91% | 1074.5 hPa | - | - | - | - |
| 1788239882 | 20° C | 88% | 1074.4 hPa | - | - | - | - |
| 1788238677 | 20.56° C | 83% | 1074.1 hPa | - | - | - | - |
| 1788237472 | 19.44° C | 91% | 1073.8 hPa | - | - | - | - |
| 1788236267 | 20° C | 91% | 1073.7 hPa | - | - | - | - |
| 1788235063 | 20° C | 89% | 1073.8 hPa | - | - | - | - |
| 1788233858 | 20° C | 91% | 1074 hPa | - | - | - | - |
| 1788232654 | 20° C | 91% | 1074 hPa | - | - | - | - |
| 1788231449 | 20° C | 90% | 1074.1 hPa | - | - | - | - |
| 1788230244 | 20.56° C | 88% | 1074 hPa | - | - | - | - |
| 1788229040 | 20.56° C | 89% | 1074 hPa | - | - | - | - |
| 1788227835 | 20.56° C | 90% | 1073.9 hPa | - | - | - | - |
| 1788226631 | 20.56° C | 91% | 1073.7 hPa | - | - | - | - |
| 1788225426 | 20° C | 92% | 1073.7 hPa | - | - | - | - |
| 1788224222 | 20° C | 93% | 1073.6 hPa | - | - | - | - |
| 1788223017 | 20° C | 92% | 1073.4 hPa | - | - | - | - |
| 1788221812 | 20.56° C | 92% | 1073.4 hPa | - | - | - | - |
| 1788220608 | 21.11° C | 90% | 1073.5 hPa | - | - | - | - |
| 1788219403 | 21.11° C | 90% | 1073.7 hPa | - | - | - | - |
| 1788218199 | 21.67° C | 88% | 1073.7 hPa | - | - | - | - |
| 1788216994 | 21.67° C | 90% | 1073.8 hPa | - | - | - | - |
* Rain since midnight (hover to see other rain measurements)
** Current wind speed in m/s (hover to see current wind gust speed)